Bristol, Illinois
Current Conditions -  °F | °C
As of 9:52 PM on Tuesday 27 Jan 2015 (Local Time) from KARR Reporting Station
Clear Clear  
Wind Chill: 20°   Ceiling: Unl
Heat Index: 20°   Visibility: 8mi
Dew Point: 13°   Wind: 0mph
Humidity: 74%   Direction: NA
Pressure: 30.26"   Gusts: NA
Location:  41.69°N, 88.43°W
Report Text: KARR 280352Z AUTO 00000KT 8SM CLR M07/M11 A3026 RMK AO2 SLP256 T10671106
Loading
Personal Weather Stations






























Interactive Weather Map New forecast layout! Learn more

10-Day Weather Forecast

Advertisements
Track Severe Weather on mobile